sensor_id;sensor_type;location;lat;lon;timestamp;temperature;humidity
65972;SHT31;52726;48.852;9.152;2023-03-03T00:02:22;-0.10;85.34
65972;SHT31;52726;48.852;9.152;2023-03-03T00:04:48;-0.05;85.92
65972;SHT31;52726;48.852;9.152;2023-03-03T00:07:13;-0.05;84.88
65972;SHT31;52726;48.852;9.152;2023-03-03T00:09:45;-0.10;85.78
65972;SHT31;52726;48.852;9.152;2023-03-03T00:12:22;-0.20;86.26
65972;SHT31;52726;48.852;9.152;2023-03-03T00:14:47;-0.27;86.44
65972;SHT31;52726;48.852;9.152;2023-03-03T00:19:46;-0.36;86.86
65972;SHT31;52726;48.852;9.152;2023-03-03T00:22:34;-0.44;86.76
65972;SHT31;52726;48.852;9.152;2023-03-03T00:25:32;-0.53;86.83
65972;SHT31;52726;48.852;9.152;2023-03-03T00:28:14;-0.56;86.98
65972;SHT31;52726;48.852;9.152;2023-03-03T00:30:45;-0.58;86.60
65972;SHT31;52726;48.852;9.152;2023-03-03T00:33:30;-0.56;86.92
65972;SHT31;52726;48.852;9.152;2023-03-03T00:38:48;-0.50;86.67
65972;SHT31;52726;48.852;9.152;2023-03-03T00:41:23;-0.49;87.05
65972;SHT31;52726;48.852;9.152;2023-03-03T00:43:49;-0.49;87.24
65972;SHT31;52726;48.852;9.152;2023-03-03T00:46:21;-0.44;87.74
65972;SHT31;52726;48.852;9.152;2023-03-03T00:48:48;-0.44;87.29
65972;SHT31;52726;48.852;9.152;2023-03-03T00:51:30;-0.38;87.82
65972;SHT31;52726;48.852;9.152;2023-03-03T00:53:57;-0.33;88.14
65972;SHT31;52726;48.852;9.152;2023-03-03T00:56:24;-0.10;88.79
65972;SHT31;52726;48.852;9.152;2023-03-03T00:58:50;0.08;88.31
65972;SHT31;52726;48.852;9.152;2023-03-03T01:01:16;0.04;87.41
65972;SHT31;52726;48.852;9.152;2023-03-03T01:03:42;0.16;87.73
65972;SHT31;52726;48.852;9.152;2023-03-03T01:06:09;0.11;86.90
65972;SHT31;52726;48.852;9.152;2023-03-03T01:08:34;0.08;87.19
65972;SHT31;52726;48.852;9.152;2023-03-03T01:11:25;0.12;87.13
65972;SHT31;52726;48.852;9.152;2023-03-03T01:13:50;0.06;87.22
65972;SHT31;52726;48.852;9.152;2023-03-03T01:16:17;0.11;87.84
65972;SHT31;52726;48.852;9.152;2023-03-03T01:18:42;0.16;87.33
65972;SHT31;52726;48.852;9.152;2023-03-03T01:21:11;0.09;86.61
65972;SHT31;52726;48.852;9.152;2023-03-03T01:23:37;0.09;87.03
65972;SHT31;52726;48.852;9.152;2023-03-03T01:26:15;0.04;86.93
65972;SHT31;52726;48.852;9.152;2023-03-03T01:28:45;0.01;86.79
65972;SHT31;52726;48.852;9.152;2023-03-03T01:31:46;-0.09;86.57
65972;SHT31;52726;48.852;9.152;2023-03-03T01:34:23;-0.13;87.07
65972;SHT31;52726;48.852;9.152;2023-03-03T01:36:48;-0.20;87.06
65972;SHT31;52726;48.852;9.152;2023-03-03T01:39:13;-0.17;87.38
65972;SHT31;52726;48.852;9.152;2023-03-03T01:41:39;-0.23;87.56
65972;SHT31;52726;48.852;9.152;2023-03-03T01:44:04;-0.19;87.85
65972;SHT31;52726;48.852;9.152;2023-03-03T01:46:35;-0.20;87.60
65972;SHT31;52726;48.852;9.152;2023-03-03T01:49:09;-0.23;87.56
65972;SHT31;52726;48.852;9.152;2023-03-03T01:51:39;-0.09;88.30
65972;SHT31;52726;48.852;9.152;2023-03-03T01:54:14;-0.05;87.60
65972;SHT31;52726;48.852;9.152;2023-03-03T01:56:42;-0.06;87.58
65972;SHT31;52726;48.852;9.152;2023-03-03T01:59:20;0.06;87.49
65972;SHT31;52726;48.852;9.152;2023-03-03T02:01:48;0.04;87.20
65972;SHT31;52726;48.852;9.152;2023-03-03T02:04:13;0.05;87.17
65972;SHT31;52726;48.852;9.152;2023-03-03T02:06:43;-0.01;86.99
65972;SHT31;52726;48.852;9.152;2023-03-03T02:11:43;-0.15;87.58
65972;SHT31;52726;48.852;9.152;2023-03-03T02:14:12;-0.17;87.63
65972;SHT31;52726;48.852;9.152;2023-03-03T02:16:38;-0.22;87.56
65972;SHT31;52726;48.852;9.152;2023-03-03T02:19:06;-0.26;87.72
65972;SHT31;52726;48.852;9.152;2023-03-03T02:21:34;-0.32;87.56
65972;SHT31;52726;48.852;9.152;2023-03-03T02:24:16;-0.30;88.05
65972;SHT31;52726;48.852;9.152;2023-03-03T02:26:47;-0.27;87.94
65972;SHT31;52726;48.852;9.152;2023-03-03T02:29:12;-0.30;87.66
65972;SHT31;52726;48.852;9.152;2023-03-03T02:31:38;-0.26;88.37
65972;SHT31;52726;48.852;9.152;2023-03-03T02:34:04;-0.33;87.41
65972;SHT31;52726;48.852;9.152;2023-03-03T02:36:32;-0.49;86.80
65972;SHT31;52726;48.852;9.152;2023-03-03T02:44:27;-0.46;88.09
65972;SHT31;52726;48.852;9.152;2023-03-03T02:46:55;-0.44;88.35
65972;SHT31;52726;48.852;9.152;2023-03-03T02:49:25;-0.36;88.05
65972;SHT31;52726;48.852;9.152;2023-03-03T02:51:51;-0.23;88.36
65972;SHT31;52726;48.852;9.152;2023-03-03T02:54:18;-0.23;87.90
65972;SHT31;52726;48.852;9.152;2023-03-03T02:56:45;-0.06;88.09
65972;SHT31;52726;48.852;9.152;2023-03-03T02:59:11;-0.05;87.87
65972;SHT31;52726;48.852;9.152;2023-03-03T03:01:37;-0.01;87.84
65972;SHT31;52726;48.852;9.152;2023-03-03T03:04:11;0.08;87.43
65972;SHT31;52726;48.852;9.152;2023-03-03T03:06:37;0.02;87.34
65972;SHT31;52726;48.852;9.152;2023-03-03T03:09:03;0.06;87.58
65972;SHT31;52726;48.852;9.152;2023-03-03T03:11:29;0.15;87.34
65972;SHT31;52726;48.852;9.152;2023-03-03T03:13:54;0.15;87.24
65972;SHT31;52726;48.852;9.152;2023-03-03T03:16:20;0.21;87.23
65972;SHT31;52726;48.852;9.152;2023-03-03T03:18:45;0.18;87.06
65972;SHT31;52726;48.852;9.152;2023-03-03T03:21:12;0.21;87.04
65972;SHT31;52726;48.852;9.152;2023-03-03T03:23:38;0.23;87.05
65972;SHT31;52726;48.852;9.152;2023-03-03T03:26:04;0.29;86.94
65972;SHT31;52726;48.852;9.152;2023-03-03T03:28:31;0.33;87.05
65972;SHT31;52726;48.852;9.152;2023-03-03T03:30:56;0.36;86.79
65972;SHT31;52726;48.852;9.152;2023-03-03T03:33:22;0.38;86.86
65972;SHT31;52726;48.852;9.152;2023-03-03T03:35:47;0.43;86.65
65972;SHT31;52726;48.852;9.152;2023-03-03T03:38:15;0.46;86.62
65972;SHT31;52726;48.852;9.152;2023-03-03T03:40:40;0.49;86.41
65972;SHT31;52726;48.852;9.152;2023-03-03T03:43:06;0.49;86.30
65972;SHT31;52726;48.852;9.152;2023-03-03T03:45:32;0.48;86.21
65972;SHT31;52726;48.852;9.152;2023-03-03T03:47:57;0.46;86.20
65972;SHT31;52726;48.852;9.152;2023-03-03T03:50:22;0.46;86.24
65972;SHT31;52726;48.852;9.152;2023-03-03T03:52:48;0.48;86.36
65972;SHT31;52726;48.852;9.152;2023-03-03T03:55:13;0.45;86.29
65972;SHT31;52726;48.852;9.152;2023-03-03T03:57:39;0.46;86.33
65972;SHT31;52726;48.852;9.152;2023-03-03T04:00:05;0.46;86.42
65972;SHT31;52726;48.852;9.152;2023-03-03T04:02:33;0.46;86.46
65972;SHT31;52726;48.852;9.152;2023-03-03T04:04:58;0.45;86.42
65972;SHT31;52726;48.852;9.152;2023-03-03T04:07:24;0.46;86.54
65972;SHT31;52726;48.852;9.152;2023-03-03T04:09:49;0.48;86.57
65972;SHT31;52726;48.852;9.152;2023-03-03T04:12:15;0.49;86.43
65972;SHT31;52726;48.852;9.152;2023-03-03T04:14:40;0.52;86.54
65972;SHT31;52726;48.852;9.152;2023-03-03T04:17:05;0.59;86.36
65972;SHT31;52726;48.852;9.152;2023-03-03T04:19:31;0.60;86.33
65972;SHT31;52726;48.852;9.152;2023-03-03T04:21:56;0.66;86.16
65972;SHT31;52726;48.852;9.152;2023-03-03T04:24:22;0.69;85.91
65972;SHT31;52726;48.852;9.152;2023-03-03T04:26:47;0.66;85.94
65972;SHT31;52726;48.852;9.152;2023-03-03T04:29:12;0.69;85.82
65972;SHT31;52726;48.852;9.152;2023-03-03T04:31:38;0.67;85.72
65972;SHT31;52726;48.852;9.152;2023-03-03T04:34:03;0.66;85.81
65972;SHT31;52726;48.852;9.152;2023-03-03T04:36:28;0.66;85.89
65972;SHT31;52726;48.852;9.152;2023-03-03T04:38:54;0.67;86.15
65972;SHT31;52726;48.852;9.152;2023-03-03T04:41:19;0.70;86.15
65972;SHT31;52726;48.852;9.152;2023-03-03T04:43:45;0.71;85.98
65972;SHT31;52726;48.852;9.152;2023-03-03T04:46:10;0.73;86.02
65972;SHT31;52726;48.852;9.152;2023-03-03T04:48:35;0.71;86.14
65972;SHT31;52726;48.852;9.152;2023-03-03T04:51:02;0.73;86.13
65972;SHT31;52726;48.852;9.152;2023-03-03T04:53:28;0.73;86.25
65972;SHT31;52726;48.852;9.152;2023-03-03T04:55:53;0.71;86.32
65972;SHT31;52726;48.852;9.152;2023-03-03T04:58:19;0.71;86.33
65972;SHT31;52726;48.852;9.152;2023-03-03T05:00:46;0.71;86.32
65972;SHT31;52726;48.852;9.152;2023-03-03T05:03:12;0.73;86.27
65972;SHT31;52726;48.852;9.152;2023-03-03T05:05:39;0.74;86.50
65972;SHT31;52726;48.852;9.152;2023-03-03T05:08:04;0.73;86.52
65972;SHT31;52726;48.852;9.152;2023-03-03T05:10:30;0.71;86.47
65972;SHT31;52726;48.852;9.152;2023-03-03T05:12:55;0.76;86.49
65972;SHT31;52726;48.852;9.152;2023-03-03T05:15:20;0.71;86.48
65972;SHT31;52726;48.852;9.152;2023-03-03T05:17:46;0.71;86.35
65972;SHT31;52726;48.852;9.152;2023-03-03T05:20:12;0.73;86.35
65972;SHT31;52726;48.852;9.152;2023-03-03T05:22:37;0.74;86.31
65972;SHT31;52726;48.852;9.152;2023-03-03T05:25:03;0.77;86.19
65972;SHT31;52726;48.852;9.152;2023-03-03T05:27:29;0.78;86.10
65972;SHT31;52726;48.852;9.152;2023-03-03T05:29:54;0.80;85.97
65972;SHT31;52726;48.852;9.152;2023-03-03T05:32:20;0.84;85.87
65972;SHT31;52726;48.852;9.152;2023-03-03T05:34:45;0.85;85.82
65972;SHT31;52726;48.852;9.152;2023-03-03T05:37:10;0.88;85.66
65972;SHT31;52726;48.852;9.152;2023-03-03T05:39:36;0.87;85.82
65972;SHT31;52726;48.852;9.152;2023-03-03T05:42:01;0.89;85.94
65972;SHT31;52726;48.852;9.152;2023-03-03T05:44:27;0.89;85.76
65972;SHT31;52726;48.852;9.152;2023-03-03T05:46:52;0.92;85.78
65972;SHT31;52726;48.852;9.152;2023-03-03T05:49:18;0.91;85.61
65972;SHT31;52726;48.852;9.152;2023-03-03T05:51:43;0.97;85.62
65972;SHT31;52726;48.852;9.152;2023-03-03T05:54:08;0.97;85.41
65972;SHT31;52726;48.852;9.152;2023-03-03T06:03:54;1.02;84.57
65972;SHT31;52726;48.852;9.152;2023-03-03T06:12:48;1.04;84.52
65972;SHT31;52726;48.852;9.152;2023-03-03T06:15:14;1.05;84.59
65972;SHT31;52726;48.852;9.152;2023-03-03T06:17:57;1.07;84.46
65972;SHT31;52726;48.852;9.152;2023-03-03T06:20:25;1.09;84.59
65972;SHT31;52726;48.852;9.152;2023-03-03T06:23:31;1.12;84.30
65972;SHT31;52726;48.852;9.152;2023-03-03T06:25:56;1.12;83.94
65972;SHT31;52726;48.852;9.152;2023-03-03T06:28:45;1.17;83.95
65972;SHT31;52726;48.852;9.152;2023-03-03T06:31:32;1.15;83.94
65972;SHT31;52726;48.852;9.152;2023-03-03T06:33:58;1.17;83.85
65972;SHT31;52726;48.852;9.152;2023-03-03T06:36:24;1.17;84.20
65972;SHT31;52726;48.852;9.152;2023-03-03T06:38:50;1.17;83.65
65972;SHT31;52726;48.852;9.152;2023-03-03T06:41:15;1.15;83.57
65972;SHT31;52726;48.852;9.152;2023-03-03T06:43:40;1.15;83.22
65972;SHT31;52726;48.852;9.152;2023-03-03T06:46:06;1.18;83.25
65972;SHT31;52726;48.852;9.152;2023-03-03T06:48:32;1.22;83.10
65972;SHT31;52726;48.852;9.152;2023-03-03T06:50:59;1.22;83.08
65972;SHT31;52726;48.852;9.152;2023-03-03T06:53:26;1.24;82.76
65972;SHT31;52726;48.852;9.152;2023-03-03T06:55:53;1.25;82.59
65972;SHT31;52726;48.852;9.152;2023-03-03T06:58:20;1.26;82.48
65972;SHT31;52726;48.852;9.152;2023-03-03T07:00:59;1.29;82.32
65972;SHT31;52726;48.852;9.152;2023-03-03T07:03:43;1.32;82.61
65972;SHT31;52726;48.852;9.152;2023-03-03T07:06:26;1.34;82.70
65972;SHT31;52726;48.852;9.152;2023-03-03T07:08:53;1.35;82.62
65972;SHT31;52726;48.852;9.152;2023-03-03T07:11:21;1.36;82.69
65972;SHT31;52726;48.852;9.152;2023-03-03T07:13:51;1.39;82.86
65972;SHT31;52726;48.852;9.152;2023-03-03T07:16:18;1.42;82.46
65972;SHT31;52726;48.852;9.152;2023-03-03T07:21:34;1.49;81.69
65972;SHT31;52726;48.852;9.152;2023-03-03T07:24:15;1.46;81.42
65972;SHT31;52726;48.852;9.152;2023-03-03T07:26:42;1.50;80.88
65972;SHT31;52726;48.852;9.152;2023-03-03T07:29:26;1.55;80.64
65972;SHT31;52726;48.852;9.152;2023-03-03T07:31:54;1.59;80.39
65972;SHT31;52726;48.852;9.152;2023-03-03T07:36:58;1.66;79.97
65972;SHT31;52726;48.852;9.152;2023-03-03T07:39:38;1.73;80.25
65972;SHT31;52726;48.852;9.152;2023-03-03T07:42:40;1.77;79.18
65972;SHT31;52726;48.852;9.152;2023-03-03T07:45:37;1.81;78.17
65972;SHT31;52726;48.852;9.152;2023-03-03T07:48:12;1.88;78.15
65972;SHT31;52726;48.852;9.152;2023-03-03T07:50:41;1.93;78.90
65972;SHT31;52726;48.852;9.152;2023-03-03T07:53:28;2.01;79.30
65972;SHT31;52726;48.852;9.152;2023-03-03T07:55:54;2.11;79.04
65972;SHT31;52726;48.852;9.152;2023-03-03T07:58:42;2.15;78.25
65972;SHT31;52726;48.852;9.152;2023-03-03T08:01:34;2.20;77.58
65972;SHT31;52726;48.852;9.152;2023-03-03T08:04:10;2.26;77.45
65972;SHT31;52726;48.852;9.152;2023-03-03T08:06:51;2.31;77.37
65972;SHT31;52726;48.852;9.152;2023-03-03T08:11:52;2.45;76.80
65972;SHT31;52726;48.852;9.152;2023-03-03T08:14:26;2.56;76.55
65972;SHT31;52726;48.852;9.152;2023-03-03T08:16:54;2.70;75.47
65972;SHT31;52726;48.852;9.152;2023-03-03T08:19:20;2.77;75.17
65972;SHT31;52726;48.852;9.152;2023-03-03T08:21:46;2.94;74.83
65972;SHT31;52726;48.852;9.152;2023-03-03T08:24:11;3.58;74.51
65972;SHT31;52726;48.852;9.152;2023-03-03T08:26:37;3.51;72.51
65972;SHT31;52726;48.852;9.152;2023-03-03T08:29:02;3.66;73.26
65972;SHT31;52726;48.852;9.152;2023-03-03T08:31:28;4.07;71.10
65972;SHT31;52726;48.852;9.152;2023-03-03T08:33:53;4.20;70.47
65972;SHT31;52726;48.852;9.152;2023-03-03T08:36:19;4.31;70.72
65972;SHT31;52726;48.852;9.152;2023-03-03T08:38:44;4.03;71.15
65972;SHT31;52726;48.852;9.152;2023-03-03T08:41:10;4.58;68.43
65972;SHT31;52726;48.852;9.152;2023-03-03T08:43:35;5.11;67.32
65972;SHT31;52726;48.852;9.152;2023-03-03T08:46:03;5.34;66.62
65972;SHT31;52726;48.852;9.152;2023-03-03T08:48:30;5.01;66.74
65972;SHT31;52726;48.852;9.152;2023-03-03T08:50:55;5.49;66.95
65972;SHT31;52726;48.852;9.152;2023-03-03T08:53:22;5.16;66.50
65972;SHT31;52726;48.852;9.152;2023-03-03T08:55:47;5.42;65.65
65972;SHT31;52726;48.852;9.152;2023-03-03T08:58:15;4.96;66.98
65972;SHT31;52726;48.852;9.152;2023-03-03T09:00:40;5.14;67.26
65972;SHT31;52726;48.852;9.152;2023-03-03T09:03:06;5.73;66.64
65972;SHT31;52726;48.852;9.152;2023-03-03T09:05:33;5.65;65.39
65972;SHT31;52726;48.852;9.152;2023-03-03T09:07:58;5.73;66.78
65972;SHT31;52726;48.852;9.152;2023-03-03T09:10:27;5.97;65.44
65972;SHT31;52726;48.852;9.152;2023-03-03T09:12:54;6.40;65.02
65972;SHT31;52726;48.852;9.152;2023-03-03T09:15:29;6.25;66.02
65972;SHT31;52726;48.852;9.152;2023-03-03T09:18:21;5.97;66.51
65972;SHT31;52726;48.852;9.152;2023-03-03T09:20:48;5.73;66.62
65972;SHT31;52726;48.852;9.152;2023-03-03T09:25:56;6.02;66.25
65972;SHT31;52726;48.852;9.152;2023-03-03T09:28:28;6.18;65.00
65972;SHT31;52726;48.852;9.152;2023-03-03T09:30:59;6.65;63.81
65972;SHT31;52726;48.852;9.152;2023-03-03T09:33:45;6.67;65.40
65972;SHT31;52726;48.852;9.152;2023-03-03T09:36:23;6.25;65.84
65972;SHT31;52726;48.852;9.152;2023-03-03T09:38:48;6.00;67.27
65972;SHT31;52726;48.852;9.152;2023-03-03T09:41:51;5.93;67.37
65972;SHT31;52726;48.852;9.152;2023-03-03T09:50:09;6.00;66.74
65972;SHT31;52726;48.852;9.152;2023-03-03T09:55:53;6.11;67.18
65972;SHT31;52726;48.852;9.152;2023-03-03T10:12:12;6.03;67.75
65972;SHT31;52726;48.852;9.152;2023-03-03T10:17:51;6.33;66.91
65972;SHT31;52726;48.852;9.152;2023-03-03T10:20:38;6.37;67.05
65972;SHT31;52726;48.852;9.152;2023-03-03T10:27:02;6.48;64.44
65972;SHT31;52726;48.852;9.152;2023-03-03T10:29:13;6.68;64.30
65972;SHT31;52726;48.852;9.152;2023-03-03T10:40:37;6.65;63.62
65972;SHT31;52726;48.852;9.152;2023-03-03T10:43:37;6.88;63.35
65972;SHT31;52726;48.852;9.152;2023-03-03T10:46:27;6.95;66.30
65972;SHT31;52726;48.852;9.152;2023-03-03T10:52:16;6.52;64.77
65972;SHT31;52726;48.852;9.152;2023-03-03T10:55:00;6.59;65.04
65972;SHT31;52726;48.852;9.152;2023-03-03T10:58:07;6.82;63.93
65972;SHT31;52726;48.852;9.152;2023-03-03T11:03:31;6.99;64.26
65972;SHT31;52726;48.852;9.152;2023-03-03T11:06:05;7.19;63.19
65972;SHT31;52726;48.852;9.152;2023-03-03T11:31:07;7.68;62.26
65972;SHT31;52726;48.852;9.152;2023-03-03T11:33:41;7.66;63.43
65972;SHT31;52726;48.852;9.152;2023-03-03T11:36:15;7.46;62.84
65972;SHT31;52726;48.852;9.152;2023-03-03T11:38:47;7.62;62.80
65972;SHT31;52726;48.852;9.152;2023-03-03T11:44:37;7.54;61.56
65972;SHT31;52726;48.852;9.152;2023-03-03T11:47:08;7.72;62.52
65972;SHT31;52726;48.852;9.152;2023-03-03T11:50:00;7.57;60.64
65972;SHT31;52726;48.852;9.152;2023-03-03T11:57:44;7.79;62.00
65972;SHT31;52726;48.852;9.152;2023-03-03T12:08:21;8.03;59.71
65972;SHT31;52726;48.852;9.152;2023-03-03T12:11:11;8.16;61.50
65972;SHT31;52726;48.852;9.152;2023-03-03T12:27:24;8.20;60.63
65972;SHT31;52726;48.852;9.152;2023-03-03T12:30:03;8.51;62.31
65972;SHT31;52726;48.852;9.152;2023-03-03T12:38:43;8.67;58.05
65972;SHT31;52726;48.852;9.152;2023-03-03T12:41:18;8.83;58.27
65972;SHT31;52726;48.852;9.152;2023-03-03T12:49:51;8.86;61.11
65972;SHT31;52726;48.852;9.152;2023-03-03T13:00:56;8.54;57.56
65972;SHT31;52726;48.852;9.152;2023-03-03T13:06:29;8.75;56.30
65972;SHT31;52726;48.852;9.152;2023-03-03T13:14:06;8.73;58.10
65972;SHT31;52726;48.852;9.152;2023-03-03T13:16:44;8.60;56.10
65972;SHT31;52726;48.852;9.152;2023-03-03T13:19:20;8.65;56.88
65972;SHT31;52726;48.852;9.152;2023-03-03T13:22:00;8.86;58.43
65972;SHT31;52726;48.852;9.152;2023-03-03T13:24:36;8.83;57.47
65972;SHT31;52726;48.852;9.152;2023-03-03T13:27:10;8.81;57.50
65972;SHT31;52726;48.852;9.152;2023-03-03T13:32:39;8.57;57.11
65972;SHT31;52726;48.852;9.152;2023-03-03T13:35:31;9.02;61.08
65972;SHT31;52726;48.852;9.152;2023-03-03T13:37:58;8.99;58.48
65972;SHT31;52726;48.852;9.152;2023-03-03T13:40:27;9.31;59.42
65972;SHT31;52726;48.852;9.152;2023-03-03T13:45:50;9.08;57.94
65972;SHT31;52726;48.852;9.152;2023-03-03T13:50:58;8.79;57.76
65972;SHT31;52726;48.852;9.152;2023-03-03T13:57:00;9.08;56.71
65972;SHT31;52726;48.852;9.152;2023-03-03T14:05:49;9.00;57.21
65972;SHT31;52726;48.852;9.152;2023-03-03T14:11:25;9.16;55.60
65972;SHT31;52726;48.852;9.152;2023-03-03T14:24:23;9.43;55.52
65972;SHT31;52726;48.852;9.152;2023-03-03T14:26:57;9.59;57.44
65972;SHT31;52726;48.852;9.152;2023-03-03T14:32:20;9.61;55.52
65972;SHT31;52726;48.852;9.152;2023-03-03T14:34:56;9.64;57.78
65972;SHT31;52726;48.852;9.152;2023-03-03T14:37:26;9.64;56.05
65972;SHT31;52726;48.852;9.152;2023-03-03T14:40:15;9.46;55.19
65972;SHT31;52726;48.852;9.152;2023-03-03T14:45:35;9.55;57.46
65972;SHT31;52726;48.852;9.152;2023-03-03T14:50:38;9.85;57.33
65972;SHT31;52726;48.852;9.152;2023-03-03T14:53:32;9.84;57.44
65972;SHT31;52726;48.852;9.152;2023-03-03T14:58:42;9.85;56.37
65972;SHT31;52726;48.852;9.152;2023-03-03T15:03:44;9.75;57.64
65972;SHT31;52726;48.852;9.152;2023-03-03T15:06:11;9.79;57.27
65972;SHT31;52726;48.852;9.152;2023-03-03T15:08:40;9.79;55.25
65972;SHT31;52726;48.852;9.152;2023-03-03T15:11:20;9.78;55.52
65972;SHT31;52726;48.852;9.152;2023-03-03T15:13:49;9.70;54.73
65972;SHT31;52726;48.852;9.152;2023-03-03T15:16:20;9.77;56.04
65972;SHT31;52726;48.852;9.152;2023-03-03T15:22:08;9.67;56.55
65972;SHT31;52726;48.852;9.152;2023-03-03T15:24:41;9.59;55.62
65972;SHT31;52726;48.852;9.152;2023-03-03T15:27:20;9.48;57.51
65972;SHT31;52726;48.852;9.152;2023-03-03T15:36:31;9.16;57.17
65972;SHT31;52726;48.852;9.152;2023-03-03T15:42:17;9.02;58.01
65972;SHT31;52726;48.852;9.152;2023-03-03T15:51:04;8.91;57.22
65972;SHT31;52726;48.852;9.152;2023-03-03T15:56:06;8.91;58.34
65972;SHT31;52726;48.852;9.152;2023-03-03T16:04:09;8.65;60.31
65972;SHT31;52726;48.852;9.152;2023-03-03T16:06:56;8.57;60.32
65972;SHT31;52726;48.852;9.152;2023-03-03T16:20:39;8.30;60.37
65972;SHT31;52726;48.852;9.152;2023-03-03T16:23:28;8.24;61.48
65972;SHT31;52726;48.852;9.152;2023-03-03T16:31:47;8.06;61.38
65972;SHT31;52726;48.852;9.152;2023-03-03T16:34:40;7.97;62.04
65972;SHT31;52726;48.852;9.152;2023-03-03T16:40:10;7.74;62.71
65972;SHT31;52726;48.852;9.152;2023-03-03T16:42:38;7.66;62.89
65972;SHT31;52726;48.852;9.152;2023-03-03T17:04:00;6.95;64.90
65972;SHT31;52726;48.852;9.152;2023-03-03T17:06:32;6.90;64.86
65972;SHT31;52726;48.852;9.152;2023-03-03T17:15:32;6.59;65.71
65972;SHT31;52726;48.852;9.152;2023-03-03T17:26:38;6.30;66.60
65972;SHT31;52726;48.852;9.152;2023-03-03T17:39:53;5.93;67.91
65972;SHT31;52726;48.852;9.152;2023-03-03T17:42:33;5.89;68.07
65972;SHT31;52726;48.852;9.152;2023-03-03T17:45:03;5.89;67.92
65972;SHT31;52726;48.852;9.152;2023-03-03T17:56:02;5.58;68.48
65972;SHT31;52726;48.852;9.152;2023-03-03T18:06:58;5.10;70.24
65972;SHT31;52726;48.852;9.152;2023-03-03T18:09:48;4.99;70.43
65972;SHT31;52726;48.852;9.152;2023-03-03T18:15:06;4.75;70.95
65972;SHT31;52726;48.852;9.152;2023-03-03T18:20:38;4.48;71.59
65972;SHT31;52726;48.852;9.152;2023-03-03T18:23:38;4.42;72.44
65972;SHT31;52726;48.852;9.152;2023-03-03T18:26:41;4.51;72.29
65972;SHT31;52726;48.852;9.152;2023-03-03T18:36:53;4.58;72.42
65972;SHT31;52726;48.852;9.152;2023-03-03T18:44:41;4.45;73.15
65972;SHT31;52726;48.852;9.152;2023-03-03T18:47:07;4.42;73.35
65972;SHT31;52726;48.852;9.152;2023-03-03T18:49:55;4.32;73.96
65972;SHT31;52726;48.852;9.152;2023-03-03T18:52:24;4.27;74.11
65972;SHT31;52726;48.852;9.152;2023-03-03T18:57:35;4.17;74.36
65972;SHT31;52726;48.852;9.152;2023-03-03T19:00:21;4.15;74.61
65972;SHT31;52726;48.852;9.152;2023-03-03T19:02:55;4.15;74.53
65972;SHT31;52726;48.852;9.152;2023-03-03T19:05:27;4.08;74.70
65972;SHT31;52726;48.852;9.152;2023-03-03T19:08:22;4.08;74.84
65972;SHT31;52726;48.852;9.152;2023-03-03T19:10:59;4.05;74.90
65972;SHT31;52726;48.852;9.152;2023-03-03T19:16:04;3.97;75.30
65972;SHT31;52726;48.852;9.152;2023-03-03T19:18:33;3.91;75.36
65972;SHT31;52726;48.852;9.152;2023-03-03T19:21:49;3.87;75.48
65972;SHT31;52726;48.852;9.152;2023-03-03T19:24:02;3.80;75.63
65972;SHT31;52726;48.852;9.152;2023-03-03T19:32:41;3.75;75.97
65972;SHT31;52726;48.852;9.152;2023-03-03T19:38:30;3.65;76.36
65972;SHT31;52726;48.852;9.152;2023-03-03T19:41:14;3.66;76.32
65972;SHT31;52726;48.852;9.152;2023-03-03T19:43:53;3.69;76.19
65972;SHT31;52726;48.852;9.152;2023-03-03T19:46:34;3.69;76.08
65972;SHT31;52726;48.852;9.152;2023-03-03T19:56:55;3.79;75.70
65972;SHT31;52726;48.852;9.152;2023-03-03T20:02:37;3.75;75.65
65972;SHT31;52726;48.852;9.152;2023-03-03T20:05:12;3.75;75.63
65972;SHT31;52726;48.852;9.152;2023-03-03T20:10:36;3.75;75.42
65972;SHT31;52726;48.852;9.152;2023-03-03T20:13:08;3.73;75.57
65972;SHT31;52726;48.852;9.152;2023-03-03T20:26:54;3.56;75.82
65972;SHT31;52726;48.852;9.152;2023-03-03T20:29:49;3.55;75.93
65972;SHT31;52726;48.852;9.152;2023-03-03T20:32:28;3.48;76.11
65972;SHT31;52726;48.852;9.152;2023-03-03T20:34:59;3.40;76.23
65972;SHT31;52726;48.852;9.152;2023-03-03T20:37:55;3.32;76.38
65972;SHT31;52726;48.852;9.152;2023-03-03T20:48:52;2.90;77.83
65972;SHT31;52726;48.852;9.152;2023-03-03T20:54:47;2.80;77.40
65972;SHT31;52726;48.852;9.152;2023-03-03T20:57:26;2.64;78.19
65972;SHT31;52726;48.852;9.152;2023-03-03T21:00:12;2.59;78.75
65972;SHT31;52726;48.852;9.152;2023-03-03T21:05:17;2.42;78.47
65972;SHT31;52726;48.852;9.152;2023-03-03T21:08:04;2.29;78.85
65972;SHT31;52726;48.852;9.152;2023-03-03T21:10:34;2.21;79.09
65972;SHT31;52726;48.852;9.152;2023-03-03T21:13:26;2.31;79.49
65972;SHT31;52726;48.852;9.152;2023-03-03T21:16:00;2.29;79.41
65972;SHT31;52726;48.852;9.152;2023-03-03T21:18:26;2.32;79.54
65972;SHT31;52726;48.852;9.152;2023-03-03T21:20:52;2.29;79.11
65972;SHT31;52726;48.852;9.152;2023-03-03T21:23:17;2.26;79.26
65972;SHT31;52726;48.852;9.152;2023-03-03T21:25:50;2.22;79.34
65972;SHT31;52726;48.852;9.152;2023-03-03T21:28:25;2.20;79.36
65972;SHT31;52726;48.852;9.152;2023-03-03T21:33:48;2.14;79.79
65972;SHT31;52726;48.852;9.152;2023-03-03T21:36:20;2.17;80.01
65972;SHT31;52726;48.852;9.152;2023-03-03T21:38:48;2.29;79.69
65972;SHT31;52726;48.852;9.152;2023-03-03T21:41:15;2.26;79.59
65972;SHT31;52726;48.852;9.152;2023-03-03T21:43:46;2.32;79.63
65972;SHT31;52726;48.852;9.152;2023-03-03T21:46:17;2.33;79.49
65972;SHT31;52726;48.852;9.152;2023-03-03T21:48:42;2.26;79.40
65972;SHT31;52726;48.852;9.152;2023-03-03T21:51:09;2.18;79.53
65972;SHT31;52726;48.852;9.152;2023-03-03T21:53:36;2.10;79.51
65972;SHT31;52726;48.852;9.152;2023-03-03T21:56:01;2.05;79.90
65972;SHT31;52726;48.852;9.152;2023-03-03T21:58:26;2.12;79.83
65972;SHT31;52726;48.852;9.152;2023-03-03T22:00:52;2.17;79.82
65972;SHT31;52726;48.852;9.152;2023-03-03T22:03:17;2.20;79.64
65972;SHT31;52726;48.852;9.152;2023-03-03T22:05:46;2.22;79.65
65972;SHT31;52726;48.852;9.152;2023-03-03T22:08:13;2.10;79.61
65972;SHT31;52726;48.852;9.152;2023-03-03T22:10:39;2.02;79.66
65972;SHT31;52726;48.852;9.152;2023-03-03T22:13:05;2.00;80.09
65972;SHT31;52726;48.852;9.152;2023-03-03T22:15:30;1.98;79.89
65972;SHT31;52726;48.852;9.152;2023-03-03T22:17:58;1.87;80.03
65972;SHT31;52726;48.852;9.152;2023-03-03T22:20:24;1.77;80.24
65972;SHT31;52726;48.852;9.152;2023-03-03T22:22:49;1.66;80.58
65972;SHT31;52726;48.852;9.152;2023-03-03T22:25:15;1.68;80.50
65972;SHT31;52726;48.852;9.152;2023-03-03T22:27:40;1.63;80.67
65972;SHT31;52726;48.852;9.152;2023-03-03T22:30:06;1.59;80.86
65972;SHT31;52726;48.852;9.152;2023-03-03T22:32:32;1.63;80.82
65972;SHT31;52726;48.852;9.152;2023-03-03T22:35:00;1.63;80.85
65972;SHT31;52726;48.852;9.152;2023-03-03T22:37:26;1.63;81.07
65972;SHT31;52726;48.852;9.152;2023-03-03T22:39:51;1.60;80.91
65972;SHT31;52726;48.852;9.152;2023-03-03T22:42:16;1.59;81.11
65972;SHT31;52726;48.852;9.152;2023-03-03T22:44:42;1.62;81.08
65972;SHT31;52726;48.852;9.152;2023-03-03T22:47:08;1.63;81.06